Terminal Aerodrome Forecast
Issued by NWS

Current Version | Previous Version | Text Only | Print | Product List | Glossary On
Versions: 1 2 3 4 5 6 7 8 9 10 11 12 13 14 15 16 17 18 19 20 21 22 23
462
FTUS43 KDLH 072338
TAFBRD
TAF
KBRD 072338Z 0800/0824 30021G29KT 3/4SM -SN BR OVC021
     FM080900 33018G28KT 4SM -SN BLSN OVC020
     FM081600 34016G25KT P6SM -SN SCT025 OVC035
     FM082100 33018G25KT P6SM BKN050=

USA.gov is the U.S. government's official web portal to all federal, state and local government web resources and services.